sensor_id;sensor_type;location;lat;lon;timestamp;temperature;humidity
15450;DHT22;7826;49.784;9.934;2023-04-24T00:01:01;11.50;99.90
15450;DHT22;7826;49.784;9.934;2023-04-24T00:03:28;11.50;99.90
15450;DHT22;7826;49.784;9.934;2023-04-24T00:05:55;11.50;99.90
15450;DHT22;7826;49.784;9.934;2023-04-24T00:08:21;11.50;99.90
15450;DHT22;7826;49.784;9.934;2023-04-24T00:10:48;11.50;99.90
15450;DHT22;7826;49.784;9.934;2023-04-24T00:13:15;11.60;99.90
15450;DHT22;7826;49.784;9.934;2023-04-24T00:15:41;11.60;99.90
15450;DHT22;7826;49.784;9.934;2023-04-24T00:18:08;11.60;99.90
15450;DHT22;7826;49.784;9.934;2023-04-24T00:20:34;11.60;99.90
15450;DHT22;7826;49.784;9.934;2023-04-24T00:23:03;11.60;99.90
15450;DHT22;7826;49.784;9.934;2023-04-24T00:25:29;11.60;99.90
15450;DHT22;7826;49.784;9.934;2023-04-24T00:27:56;11.60;99.90
15450;DHT22;7826;49.784;9.934;2023-04-24T00:30:23;11.70;99.90
15450;DHT22;7826;49.784;9.934;2023-04-24T00:32:49;11.70;99.90
15450;DHT22;7826;49.784;9.934;2023-04-24T00:35:16;11.70;99.90
15450;DHT22;7826;49.784;9.934;2023-04-24T00:37:43;11.60;99.90
15450;DHT22;7826;49.784;9.934;2023-04-24T00:40:10;11.60;99.90
15450;DHT22;7826;49.784;9.934;2023-04-24T00:42:36;11.60;99.90
15450;DHT22;7826;49.784;9.934;2023-04-24T00:45:04;11.60;99.90
15450;DHT22;7826;49.784;9.934;2023-04-24T00:47:32;11.70;1.00
15450;DHT22;7826;49.784;9.934;2023-04-24T00:50:04;11.70;99.90
15450;DHT22;7826;49.784;9.934;2023-04-24T00:52:32;11.80;99.90
15450;DHT22;7826;49.784;9.934;2023-04-24T00:54:59;11.80;99.90
15450;DHT22;7826;49.784;9.934;2023-04-24T00:57:26;11.70;99.90
15450;DHT22;7826;49.784;9.934;2023-04-24T00:59:52;11.70;99.90
15450;DHT22;7826;49.784;9.934;2023-04-24T01:02:19;11.70;99.90
15450;DHT22;7826;49.784;9.934;2023-04-24T01:04:47;11.80;99.90
15450;DHT22;7826;49.784;9.934;2023-04-24T01:07:13;11.80;99.90
15450;DHT22;7826;49.784;9.934;2023-04-24T01:09:40;11.80;99.90
15450;DHT22;7826;49.784;9.934;2023-04-24T01:12:10;11.80;99.90
15450;DHT22;7826;49.784;9.934;2023-04-24T01:14:37;11.70;1.00
15450;DHT22;7826;49.784;9.934;2023-04-24T01:17:05;11.70;1.00
15450;DHT22;7826;49.784;9.934;2023-04-24T01:19:32;11.60;1.00
15450;DHT22;7826;49.784;9.934;2023-04-24T01:22:02;11.60;1.00
15450;DHT22;7826;49.784;9.934;2023-04-24T01:24:29;11.60;1.00
15450;DHT22;7826;49.784;9.934;2023-04-24T01:26:56;11.50;1.00
15450;DHT22;7826;49.784;9.934;2023-04-24T01:29:22;11.60;1.00
15450;DHT22;7826;49.784;9.934;2023-04-24T01:31:50;11.60;1.00
15450;DHT22;7826;49.784;9.934;2023-04-24T01:34:16;11.50;1.00
15450;DHT22;7826;49.784;9.934;2023-04-24T01:36:45;11.50;1.00
15450;DHT22;7826;49.784;9.934;2023-04-24T01:39:13;11.60;1.00
15450;DHT22;7826;49.784;9.934;2023-04-24T01:41:39;11.60;1.00
15450;DHT22;7826;49.784;9.934;2023-04-24T01:44:05;11.60;1.00
15450;DHT22;7826;49.784;9.934;2023-04-24T01:46:32;11.70;1.00
15450;DHT22;7826;49.784;9.934;2023-04-24T01:49:01;11.70;1.00
15450;DHT22;7826;49.784;9.934;2023-04-24T01:51:28;11.70;1.00
15450;DHT22;7826;49.784;9.934;2023-04-24T01:53:54;11.70;1.00
15450;DHT22;7826;49.784;9.934;2023-04-24T01:56:22;11.70;1.00
15450;DHT22;7826;49.784;9.934;2023-04-24T01:58:50;11.70;1.00
15450;DHT22;7826;49.784;9.934;2023-04-24T02:01:19;11.60;1.00
15450;DHT22;7826;49.784;9.934;2023-04-24T02:03:46;11.70;1.00
15450;DHT22;7826;49.784;9.934;2023-04-24T02:06:13;11.70;1.00
15450;DHT22;7826;49.784;9.934;2023-04-24T02:08:40;11.70;1.00
15450;DHT22;7826;49.784;9.934;2023-04-24T02:11:08;11.70;1.00
15450;DHT22;7826;49.784;9.934;2023-04-24T02:13:34;11.70;1.00
15450;DHT22;7826;49.784;9.934;2023-04-24T02:16:01;11.70;1.00
15450;DHT22;7826;49.784;9.934;2023-04-24T02:18:28;11.70;1.00
15450;DHT22;7826;49.784;9.934;2023-04-24T02:20:54;11.70;1.00
15450;DHT22;7826;49.784;9.934;2023-04-24T02:23:20;11.70;1.00
15450;DHT22;7826;49.784;9.934;2023-04-24T02:25:47;11.70;1.00
15450;DHT22;7826;49.784;9.934;2023-04-24T02:28:14;11.70;1.00
15450;DHT22;7826;49.784;9.934;2023-04-24T02:30:41;11.70;1.00
15450;DHT22;7826;49.784;9.934;2023-04-24T02:33:07;11.80;1.00
15450;DHT22;7826;49.784;9.934;2023-04-24T02:35:33;11.70;1.00
15450;DHT22;7826;49.784;9.934;2023-04-24T02:38:00;11.60;1.00
15450;DHT22;7826;49.784;9.934;2023-04-24T02:40:26;11.50;76.40
15450;DHT22;7826;49.784;9.934;2023-04-24T02:42:53;11.50;1.00
15450;DHT22;7826;49.784;9.934;2023-04-24T02:45:19;11.50;1.00
15450;DHT22;7826;49.784;9.934;2023-04-24T02:47:46;11.60;1.00
15450;DHT22;7826;49.784;9.934;2023-04-24T02:50:13;11.60;1.00
15450;DHT22;7826;49.784;9.934;2023-04-24T02:52:39;11.60;1.00
15450;DHT22;7826;49.784;9.934;2023-04-24T02:55:06;11.60;1.00
15450;DHT22;7826;49.784;9.934;2023-04-24T02:57:34;11.70;1.00
15450;DHT22;7826;49.784;9.934;2023-04-24T03:00:00;11.70;1.00
15450;DHT22;7826;49.784;9.934;2023-04-24T03:02:27;11.70;1.00
15450;DHT22;7826;49.784;9.934;2023-04-24T03:04:53;11.70;1.00
15450;DHT22;7826;49.784;9.934;2023-04-24T03:07:19;11.70;1.00
15450;DHT22;7826;49.784;9.934;2023-04-24T03:09:47;11.70;1.00
15450;DHT22;7826;49.784;9.934;2023-04-24T03:12:14;11.80;1.00
15450;DHT22;7826;49.784;9.934;2023-04-24T03:14:41;11.80;1.00
15450;DHT22;7826;49.784;9.934;2023-04-24T03:17:07;11.80;1.00
15450;DHT22;7826;49.784;9.934;2023-04-24T03:19:34;11.70;1.00
15450;DHT22;7826;49.784;9.934;2023-04-24T03:22:04;11.80;1.00
15450;DHT22;7826;49.784;9.934;2023-04-24T03:24:30;11.80;1.00
15450;DHT22;7826;49.784;9.934;2023-04-24T03:26:58;11.70;1.00
15450;DHT22;7826;49.784;9.934;2023-04-24T03:29:24;11.70;1.00
15450;DHT22;7826;49.784;9.934;2023-04-24T03:31:51;11.60;1.00
15450;DHT22;7826;49.784;9.934;2023-04-24T03:34:18;11.60;1.00
15450;DHT22;7826;49.784;9.934;2023-04-24T03:36:44;11.60;1.00
15450;DHT22;7826;49.784;9.934;2023-04-24T03:39:13;11.60;1.00
15450;DHT22;7826;49.784;9.934;2023-04-24T03:41:40;11.70;1.00
15450;DHT22;7826;49.784;9.934;2023-04-24T03:44:06;11.70;1.00
15450;DHT22;7826;49.784;9.934;2023-04-24T03:46:32;11.70;1.00
15450;DHT22;7826;49.784;9.934;2023-04-24T03:48:58;11.80;1.00
15450;DHT22;7826;49.784;9.934;2023-04-24T03:51:25;11.70;1.00
15450;DHT22;7826;49.784;9.934;2023-04-24T03:53:51;11.70;1.00
15450;DHT22;7826;49.784;9.934;2023-04-24T03:56:17;11.70;1.00
15450;DHT22;7826;49.784;9.934;2023-04-24T03:58:43;11.60;1.00
15450;DHT22;7826;49.784;9.934;2023-04-24T04:01:09;11.60;1.00
15450;DHT22;7826;49.784;9.934;2023-04-24T04:03:37;11.50;1.00
15450;DHT22;7826;49.784;9.934;2023-04-24T04:06:04;11.50;1.00
15450;DHT22;7826;49.784;9.934;2023-04-24T04:08:30;11.40;1.00
15450;DHT22;7826;49.784;9.934;2023-04-24T04:10:57;11.40;1.00
15450;DHT22;7826;49.784;9.934;2023-04-24T04:13:23;11.40;1.00
15450;DHT22;7826;49.784;9.934;2023-04-24T04:15:49;11.40;1.00
15450;DHT22;7826;49.784;9.934;2023-04-24T04:18:16;11.40;1.00
15450;DHT22;7826;49.784;9.934;2023-04-24T04:20:42;11.20;1.00
15450;DHT22;7826;49.784;9.934;2023-04-24T04:23:09;11.30;1.00
15450;DHT22;7826;49.784;9.934;2023-04-24T04:25:35;11.30;1.00
15450;DHT22;7826;49.784;9.934;2023-04-24T04:28:02;11.40;1.00
15450;DHT22;7826;49.784;9.934;2023-04-24T04:30:28;11.30;1.00
15450;DHT22;7826;49.784;9.934;2023-04-24T04:32:59;11.40;1.00
15450;DHT22;7826;49.784;9.934;2023-04-24T04:35:25;11.40;1.00
15450;DHT22;7826;49.784;9.934;2023-04-24T04:37:51;11.40;1.00
15450;DHT22;7826;49.784;9.934;2023-04-24T04:40:18;11.30;1.00
15450;DHT22;7826;49.784;9.934;2023-04-24T04:42:45;11.30;1.00
15450;DHT22;7826;49.784;9.934;2023-04-24T04:45:12;11.30;1.00
15450;DHT22;7826;49.784;9.934;2023-04-24T04:47:38;11.30;1.00
15450;DHT22;7826;49.784;9.934;2023-04-24T04:50:05;11.30;1.00
15450;DHT22;7826;49.784;9.934;2023-04-24T04:52:32;11.30;1.00
15450;DHT22;7826;49.784;9.934;2023-04-24T04:54:58;11.30;1.00
15450;DHT22;7826;49.784;9.934;2023-04-24T04:57:25;11.40;1.00
15450;DHT22;7826;49.784;9.934;2023-04-24T04:59:51;11.40;1.00
15450;DHT22;7826;49.784;9.934;2023-04-24T05:02:17;11.40;1.00
15450;DHT22;7826;49.784;9.934;2023-04-24T05:04:44;11.40;1.00
15450;DHT22;7826;49.784;9.934;2023-04-24T05:07:11;11.40;1.00
15450;DHT22;7826;49.784;9.934;2023-04-24T05:09:37;11.50;1.00
15450;DHT22;7826;49.784;9.934;2023-04-24T05:12:04;11.40;1.00
15450;DHT22;7826;49.784;9.934;2023-04-24T05:14:30;11.40;1.00
15450;DHT22;7826;49.784;9.934;2023-04-24T05:16:56;11.40;1.00
15450;DHT22;7826;49.784;9.934;2023-04-24T05:19:23;11.40;1.00
15450;DHT22;7826;49.784;9.934;2023-04-24T05:21:49;11.50;1.00
15450;DHT22;7826;49.784;9.934;2023-04-24T05:24:15;11.50;99.90
15450;DHT22;7826;49.784;9.934;2023-04-24T05:26:41;11.50;99.90
15450;DHT22;7826;49.784;9.934;2023-04-24T05:29:08;11.50;1.00
15450;DHT22;7826;49.784;9.934;2023-04-24T05:31:34;11.50;1.00
15450;DHT22;7826;49.784;9.934;2023-04-24T05:34:00;11.50;99.90
15450;DHT22;7826;49.784;9.934;2023-04-24T05:36:27;11.60;99.90
15450;DHT22;7826;49.784;9.934;2023-04-24T05:38:53;11.70;99.90
15450;DHT22;7826;49.784;9.934;2023-04-24T05:41:20;11.80;99.90
15450;DHT22;7826;49.784;9.934;2023-04-24T05:43:47;11.80;99.90
15450;DHT22;7826;49.784;9.934;2023-04-24T05:46:13;11.80;99.90
15450;DHT22;7826;49.784;9.934;2023-04-24T05:48:39;11.90;99.90
15450;DHT22;7826;49.784;9.934;2023-04-24T05:51:06;12.00;99.90
15450;DHT22;7826;49.784;9.934;2023-04-24T05:53:32;12.00;99.90
15450;DHT22;7826;49.784;9.934;2023-04-24T05:55:58;12.10;99.90
15450;DHT22;7826;49.784;9.934;2023-04-24T05:58:24;12.10;99.90
15450;DHT22;7826;49.784;9.934;2023-04-24T06:00:51;12.20;99.90
15450;DHT22;7826;49.784;9.934;2023-04-24T06:03:17;12.30;99.90
15450;DHT22;7826;49.784;9.934;2023-04-24T06:05:44;12.40;99.90
15450;DHT22;7826;49.784;9.934;2023-04-24T06:08:10;12.60;99.90
15450;DHT22;7826;49.784;9.934;2023-04-24T06:10:37;12.60;99.90
15450;DHT22;7826;49.784;9.934;2023-04-24T06:13:03;12.70;99.90
15450;DHT22;7826;49.784;9.934;2023-04-24T06:15:30;12.80;99.90
15450;DHT22;7826;49.784;9.934;2023-04-24T06:17:59;12.80;99.90
15450;DHT22;7826;49.784;9.934;2023-04-24T06:20:26;12.80;99.90
15450;DHT22;7826;49.784;9.934;2023-04-24T06:22:52;12.70;99.90
15450;DHT22;7826;49.784;9.934;2023-04-24T06:25:20;12.80;99.90
15450;DHT22;7826;49.784;9.934;2023-04-24T06:27:46;12.80;99.90
15450;DHT22;7826;49.784;9.934;2023-04-24T06:30:13;12.80;99.90
15450;DHT22;7826;49.784;9.934;2023-04-24T06:32:39;12.90;99.90
15450;DHT22;7826;49.784;9.934;2023-04-24T06:35:06;12.90;99.90
15450;DHT22;7826;49.784;9.934;2023-04-24T06:37:34;13.00;99.90
15450;DHT22;7826;49.784;9.934;2023-04-24T06:40:00;12.90;99.90
15450;DHT22;7826;49.784;9.934;2023-04-24T06:42:26;12.90;99.90
15450;DHT22;7826;49.784;9.934;2023-04-24T06:44:52;12.90;99.90
15450;DHT22;7826;49.784;9.934;2023-04-24T06:47:19;13.00;99.90
15450;DHT22;7826;49.784;9.934;2023-04-24T06:49:45;13.10;99.90
15450;DHT22;7826;49.784;9.934;2023-04-24T06:52:11;13.50;99.90
15450;DHT22;7826;49.784;9.934;2023-04-24T06:54:37;13.90;99.90
15450;DHT22;7826;49.784;9.934;2023-04-24T06:57:03;14.50;99.90
15450;DHT22;7826;49.784;9.934;2023-04-24T06:59:30;15.00;99.90
15450;DHT22;7826;49.784;9.934;2023-04-24T07:01:56;15.50;99.90
15450;DHT22;7826;49.784;9.934;2023-04-24T07:04:22;15.90;99.90
15450;DHT22;7826;49.784;9.934;2023-04-24T07:06:50;16.20;99.10
15450;DHT22;7826;49.784;9.934;2023-04-24T07:09:17;16.50;97.80
15450;DHT22;7826;49.784;9.934;2023-04-24T07:11:45;16.90;97.50
15450;DHT22;7826;49.784;9.934;2023-04-24T07:14:11;17.30;95.30
15450;DHT22;7826;49.784;9.934;2023-04-24T07:16:38;17.40;92.40
15450;DHT22;7826;49.784;9.934;2023-04-24T07:19:05;17.50;92.00
15450;DHT22;7826;49.784;9.934;2023-04-24T07:21:31;17.80;91.70
15450;DHT22;7826;49.784;9.934;2023-04-24T07:23:58;18.30;89.30
15450;DHT22;7826;49.784;9.934;2023-04-24T07:26:26;18.20;88.00
15450;DHT22;7826;49.784;9.934;2023-04-24T07:28:53;18.80;84.60
15450;DHT22;7826;49.784;9.934;2023-04-24T07:31:19;19.00;83.70
15450;DHT22;7826;49.784;9.934;2023-04-24T07:33:45;19.00;81.20
15450;DHT22;7826;49.784;9.934;2023-04-24T07:36:12;19.00;78.10
15450;DHT22;7826;49.784;9.934;2023-04-24T07:38:42;18.90;80.20
15450;DHT22;7826;49.784;9.934;2023-04-24T07:41:09;18.50;79.30
15450;DHT22;7826;49.784;9.934;2023-04-24T07:43:35;18.00;79.80
15450;DHT22;7826;49.784;9.934;2023-04-24T07:46:01;17.40;81.40
15450;DHT22;7826;49.784;9.934;2023-04-24T07:48:28;17.50;82.90
15450;DHT22;7826;49.784;9.934;2023-04-24T07:50:54;17.90;82.20
15450;DHT22;7826;49.784;9.934;2023-04-24T07:53:20;17.80;83.60
15450;DHT22;7826;49.784;9.934;2023-04-24T07:55:47;17.50;81.00
15450;DHT22;7826;49.784;9.934;2023-04-24T07:58:13;17.00;82.50
15450;DHT22;7826;49.784;9.934;2023-04-24T08:00:39;16.80;84.30
15450;DHT22;7826;49.784;9.934;2023-04-24T08:03:06;16.60;86.20
15450;DHT22;7826;49.784;9.934;2023-04-24T08:05:32;16.30;87.00
15450;DHT22;7826;49.784;9.934;2023-04-24T08:07:58;16.30;88.20
15450;DHT22;7826;49.784;9.934;2023-04-24T08:10:25;16.20;89.90
15450;DHT22;7826;49.784;9.934;2023-04-24T08:12:51;16.40;90.10
15450;DHT22;7826;49.784;9.934;2023-04-24T08:15:18;16.50;88.20
15450;DHT22;7826;49.784;9.934;2023-04-24T08:17:44;16.20;89.00
15450;DHT22;7826;49.784;9.934;2023-04-24T08:20:11;16.20;89.10
15450;DHT22;7826;49.784;9.934;2023-04-24T08:22:41;16.20;87.40
15450;DHT22;7826;49.784;9.934;2023-04-24T08:25:08;16.10;88.00
15450;DHT22;7826;49.784;9.934;2023-04-24T08:27:34;15.90;88.80
15450;DHT22;7826;49.784;9.934;2023-04-24T08:30:03;16.00;90.10
15450;DHT22;7826;49.784;9.934;2023-04-24T08:32:30;16.00;90.50
15450;DHT22;7826;49.784;9.934;2023-04-24T08:34:57;16.10;88.90
15450;DHT22;7826;49.784;9.934;2023-04-24T08:37:23;16.10;89.00
15450;DHT22;7826;49.784;9.934;2023-04-24T08:39:50;16.00;88.10
15450;DHT22;7826;49.784;9.934;2023-04-24T08:42:20;15.90;88.60
15450;DHT22;7826;49.784;9.934;2023-04-24T08:44:48;15.90;88.90
15450;DHT22;7826;49.784;9.934;2023-04-24T08:47:15;16.00;89.40
15450;DHT22;7826;49.784;9.934;2023-04-24T08:49:43;16.20;90.20
15450;DHT22;7826;49.784;9.934;2023-04-24T08:52:09;16.40;89.00
15450;DHT22;7826;49.784;9.934;2023-04-24T08:54:39;16.40;89.90
15450;DHT22;7826;49.784;9.934;2023-04-24T08:57:07;16.10;86.70
15450;DHT22;7826;49.784;9.934;2023-04-24T08:59:35;16.00;87.40
15450;DHT22;7826;49.784;9.934;2023-04-24T09:02:03;16.00;88.20
15450;DHT22;7826;49.784;9.934;2023-04-24T09:04:30;15.90;87.90
15450;DHT22;7826;49.784;9.934;2023-04-24T09:06:57;15.80;88.20
15450;DHT22;7826;49.784;9.934;2023-04-24T09:09:25;15.90;90.30
15450;DHT22;7826;49.784;9.934;2023-04-24T09:11:52;16.00;90.10
15450;DHT22;7826;49.784;9.934;2023-04-24T09:14:21;16.10;89.30
15450;DHT22;7826;49.784;9.934;2023-04-24T09:16:50;16.30;86.00
15450;DHT22;7826;49.784;9.934;2023-04-24T09:19:16;16.50;85.00
15450;DHT22;7826;49.784;9.934;2023-04-24T09:21:46;16.60;84.40
15450;DHT22;7826;49.784;9.934;2023-04-24T09:24:20;17.10;84.00
15450;DHT22;7826;49.784;9.934;2023-04-24T09:26:49;17.30;81.80
15450;DHT22;7826;49.784;9.934;2023-04-24T09:29:21;17.20;82.80
15450;DHT22;7826;49.784;9.934;2023-04-24T09:31:48;17.10;82.40
15450;DHT22;7826;49.784;9.934;2023-04-24T09:34:14;16.80;83.50
15450;DHT22;7826;49.784;9.934;2023-04-24T09:36:42;16.80;84.90
15450;DHT22;7826;49.784;9.934;2023-04-24T09:39:11;16.80;86.10
15450;DHT22;7826;49.784;9.934;2023-04-24T09:41:51;17.10;85.40
15450;DHT22;7826;49.784;9.934;2023-04-24T09:44:26;17.50;81.40
15450;DHT22;7826;49.784;9.934;2023-04-24T09:47:00;17.80;79.40
15450;DHT22;7826;49.784;9.934;2023-04-24T09:49:28;17.50;77.20
15450;DHT22;7826;49.784;9.934;2023-04-24T09:52:09;17.10;79.30
15450;DHT22;7826;49.784;9.934;2023-04-24T09:54:37;17.10;79.30
15450;DHT22;7826;49.784;9.934;2023-04-24T09:57:04;17.00;79.10
15450;DHT22;7826;49.784;9.934;2023-04-24T09:59:31;16.80;79.70
15450;DHT22;7826;49.784;9.934;2023-04-24T10:01:57;16.80;80.40
15450;DHT22;7826;49.784;9.934;2023-04-24T10:04:27;16.80;80.00
15450;DHT22;7826;49.784;9.934;2023-04-24T10:06:56;16.60;80.50
15450;DHT22;7826;49.784;9.934;2023-04-24T10:09:25;16.80;82.70
15450;DHT22;7826;49.784;9.934;2023-04-24T10:11:53;16.80;80.70
15450;DHT22;7826;49.784;9.934;2023-04-24T10:14:23;16.80;80.70
15450;DHT22;7826;49.784;9.934;2023-04-24T10:16:52;17.00;81.80
15450;DHT22;7826;49.784;9.934;2023-04-24T10:19:19;17.00;81.30
15450;DHT22;7826;49.784;9.934;2023-04-24T10:21:46;17.00;80.30
15450;DHT22;7826;49.784;9.934;2023-04-24T10:24:15;16.80;80.60
15450;DHT22;7826;49.784;9.934;2023-04-24T10:26:42;16.80;81.60
15450;DHT22;7826;49.784;9.934;2023-04-24T10:29:10;16.50;87.50
15450;DHT22;7826;49.784;9.934;2023-04-24T10:34:06;15.90;95.80
15450;DHT22;7826;49.784;9.934;2023-04-24T10:36:34;15.70;96.80
15450;DHT22;7826;49.784;9.934;2023-04-24T10:39:03;15.60;99.60
15450;DHT22;7826;49.784;9.934;2023-04-24T10:41:32;15.90;99.90
15450;DHT22;7826;49.784;9.934;2023-04-24T10:46:32;17.00;99.90
15450;DHT22;7826;49.784;9.934;2023-04-24T10:48:58;17.30;99.90
15450;DHT22;7826;49.784;9.934;2023-04-24T10:51:50;17.60;99.90
15450;DHT22;7826;49.784;9.934;2023-04-24T10:54:24;17.40;96.60
15450;DHT22;7826;49.784;9.934;2023-04-24T10:56:51;17.50;97.50
15450;DHT22;7826;49.784;9.934;2023-04-24T10:59:28;17.40;93.20
15450;DHT22;7826;49.784;9.934;2023-04-24T11:02:00;17.20;86.40
15450;DHT22;7826;49.784;9.934;2023-04-24T11:04:31;16.90;88.30
15450;DHT22;7826;49.784;9.934;2023-04-24T11:07:02;16.90;87.40
15450;DHT22;7826;49.784;9.934;2023-04-24T11:09:33;16.70;89.00
15450;DHT22;7826;49.784;9.934;2023-04-24T11:12:08;16.60;87.10
15450;DHT22;7826;49.784;9.934;2023-04-24T11:17:37;16.40;85.50
15450;DHT22;7826;49.784;9.934;2023-04-24T11:20:11;16.50;88.70
15450;DHT22;7826;49.784;9.934;2023-04-24T11:22:39;16.50;87.70
15450;DHT22;7826;49.784;9.934;2023-04-24T11:25:09;16.60;86.60
15450;DHT22;7826;49.784;9.934;2023-04-24T11:27:42;16.60;84.60
15450;DHT22;7826;49.784;9.934;2023-04-24T11:30:10;16.60;84.70
15450;DHT22;7826;49.784;9.934;2023-04-24T11:32:41;17.10;85.40
15450;DHT22;7826;49.784;9.934;2023-04-24T11:35:16;17.70;84.40
15450;DHT22;7826;49.784;9.934;2023-04-24T11:37:44;18.20;79.10
15450;DHT22;7826;49.784;9.934;2023-04-24T11:40:18;18.60;69.50
15450;DHT22;7826;49.784;9.934;2023-04-24T11:42:52;18.60;67.80
15450;DHT22;7826;49.784;9.934;2023-04-24T11:45:26;18.70;68.00
15450;DHT22;7826;49.784;9.934;2023-04-24T11:47:54;18.80;65.70
15450;DHT22;7826;49.784;9.934;2023-04-24T11:50:23;19.30;64.20
15450;DHT22;7826;49.784;9.934;2023-04-24T11:52:52;19.50;62.20
15450;DHT22;7826;49.784;9.934;2023-04-24T11:57:49;19.60;58.10
15450;DHT22;7826;49.784;9.934;2023-04-24T12:00:21;19.70;60.20
15450;DHT22;7826;49.784;9.934;2023-04-24T12:02:49;19.80;57.50
15450;DHT22;7826;49.784;9.934;2023-04-24T12:05:20;19.60;55.50
15450;DHT22;7826;49.784;9.934;2023-04-24T12:07:47;19.20;55.80
15450;DHT22;7826;49.784;9.934;2023-04-24T12:10:13;18.80;58.50
15450;DHT22;7826;49.784;9.934;2023-04-24T12:12:40;18.20;59.60
15450;DHT22;7826;49.784;9.934;2023-04-24T12:15:08;17.80;60.00
15450;DHT22;7826;49.784;9.934;2023-04-24T12:17:35;17.50;61.90
15450;DHT22;7826;49.784;9.934;2023-04-24T12:20:07;17.30;60.50
15450;DHT22;7826;49.784;9.934;2023-04-24T12:23:03;17.30;63.10
15450;DHT22;7826;49.784;9.934;2023-04-24T12:25:33;17.50;60.50
15450;DHT22;7826;49.784;9.934;2023-04-24T12:30:31;17.80;59.70
15450;DHT22;7826;49.784;9.934;2023-04-24T12:32:59;17.80;60.00
15450;DHT22;7826;49.784;9.934;2023-04-24T12:35:29;17.60;57.60
15450;DHT22;7826;49.784;9.934;2023-04-24T12:38:11;17.30;55.10
15450;DHT22;7826;49.784;9.934;2023-04-24T12:40:39;17.40;55.80
15450;DHT22;7826;49.784;9.934;2023-04-24T12:43:20;17.50;55.90
15450;DHT22;7826;49.784;9.934;2023-04-24T12:45:47;17.70;56.90
15450;DHT22;7826;49.784;9.934;2023-04-24T12:48:14;17.90;57.50
15450;DHT22;7826;49.784;9.934;2023-04-24T12:50:40;17.90;55.60
15450;DHT22;7826;49.784;9.934;2023-04-24T12:53:08;17.90;58.20
15450;DHT22;7826;49.784;9.934;2023-04-24T12:55:35;18.20;62.30
15450;DHT22;7826;49.784;9.934;2023-04-24T12:58:01;18.30;64.40
15450;DHT22;7826;49.784;9.934;2023-04-24T13:00:29;18.50;66.40
15450;DHT22;7826;49.784;9.934;2023-04-24T13:02:55;18.60;64.90
15450;DHT22;7826;49.784;9.934;2023-04-24T13:05:21;18.40;64.60
15450;DHT22;7826;49.784;9.934;2023-04-24T13:07:48;18.20;56.80
15450;DHT22;7826;49.784;9.934;2023-04-24T13:10:14;17.90;56.10
15450;DHT22;7826;49.784;9.934;2023-04-24T13:12:40;17.80;54.60
15450;DHT22;7826;49.784;9.934;2023-04-24T13:15:07;17.90;54.10
15450;DHT22;7826;49.784;9.934;2023-04-24T13:17:33;18.00;54.10
15450;DHT22;7826;49.784;9.934;2023-04-24T13:20:00;18.00;53.50
15450;DHT22;7826;49.784;9.934;2023-04-24T13:22:27;18.00;53.60
15450;DHT22;7826;49.784;9.934;2023-04-24T13:24:53;18.00;52.80
15450;DHT22;7826;49.784;9.934;2023-04-24T13:27:20;17.80;53.10
15450;DHT22;7826;49.784;9.934;2023-04-24T13:29:47;17.80;53.50
15450;DHT22;7826;49.784;9.934;2023-04-24T13:32:13;18.10;54.30
15450;DHT22;7826;49.784;9.934;2023-04-24T13:34:39;17.90;52.40
15450;DHT22;7826;49.784;9.934;2023-04-24T13:37:06;17.90;53.60
15450;DHT22;7826;49.784;9.934;2023-04-24T13:39:34;18.20;52.00
15450;DHT22;7826;49.784;9.934;2023-04-24T13:42:01;18.50;52.50
15450;DHT22;7826;49.784;9.934;2023-04-24T13:44:31;18.40;51.30
15450;DHT22;7826;49.784;9.934;2023-04-24T13:46:59;18.30;53.10
15450;DHT22;7826;49.784;9.934;2023-04-24T13:49:26;18.40;51.70
15450;DHT22;7826;49.784;9.934;2023-04-24T13:51:54;18.50;53.50
15450;DHT22;7826;49.784;9.934;2023-04-24T13:54:20;18.60;52.20
15450;DHT22;7826;49.784;9.934;2023-04-24T13:56:46;18.30;50.90
15450;DHT22;7826;49.784;9.934;2023-04-24T13:59:13;18.00;52.20
15450;DHT22;7826;49.784;9.934;2023-04-24T14:01:39;17.90;52.40
15450;DHT22;7826;49.784;9.934;2023-04-24T14:04:05;18.00;52.50
15450;DHT22;7826;49.784;9.934;2023-04-24T14:06:31;17.70;52.20
15450;DHT22;7826;49.784;9.934;2023-04-24T14:08:58;17.40;52.20
15450;DHT22;7826;49.784;9.934;2023-04-24T14:11:24;17.30;53.00
15450;DHT22;7826;49.784;9.934;2023-04-24T14:13:50;17.10;53.00
15450;DHT22;7826;49.784;9.934;2023-04-24T14:16:16;17.10;53.80
15450;DHT22;7826;49.784;9.934;2023-04-24T14:18:42;17.00;54.20
15450;DHT22;7826;49.784;9.934;2023-04-24T14:21:08;16.90;53.50
15450;DHT22;7826;49.784;9.934;2023-04-24T14:23:35;16.90;53.10
15450;DHT22;7826;49.784;9.934;2023-04-24T14:26:01;16.80;53.10
15450;DHT22;7826;49.784;9.934;2023-04-24T14:28:27;16.70;53.80
15450;DHT22;7826;49.784;9.934;2023-04-24T14:30:54;16.70;54.90
15450;DHT22;7826;49.784;9.934;2023-04-24T14:33:20;16.60;57.10
15450;DHT22;7826;49.784;9.934;2023-04-24T14:35:47;16.40;55.60
15450;DHT22;7826;49.784;9.934;2023-04-24T14:38:14;16.50;56.40
15450;DHT22;7826;49.784;9.934;2023-04-24T14:40:41;16.40;56.00
15450;DHT22;7826;49.784;9.934;2023-04-24T14:43:07;16.40;55.40
15450;DHT22;7826;49.784;9.934;2023-04-24T14:45:33;16.20;55.00
15450;DHT22;7826;49.784;9.934;2023-04-24T14:48:00;16.10;55.80
15450;DHT22;7826;49.784;9.934;2023-04-24T14:50:27;16.10;56.30
15450;DHT22;7826;49.784;9.934;2023-04-24T14:52:55;16.00;55.40
15450;DHT22;7826;49.784;9.934;2023-04-24T14:55:24;15.90;56.70
15450;DHT22;7826;49.784;9.934;2023-04-24T14:57:50;15.90;57.10
15450;DHT22;7826;49.784;9.934;2023-04-24T15:00:17;16.00;56.30
15450;DHT22;7826;49.784;9.934;2023-04-24T15:02:43;16.00;54.40
15450;DHT22;7826;49.784;9.934;2023-04-24T15:05:10;16.10;55.00
15450;DHT22;7826;49.784;9.934;2023-04-24T15:07:38;16.30;55.00
15450;DHT22;7826;49.784;9.934;2023-04-24T15:10:05;16.40;56.80
15450;DHT22;7826;49.784;9.934;2023-04-24T15:12:32;16.40;54.10
15450;DHT22;7826;49.784;9.934;2023-04-24T15:14:58;16.30;54.20
15450;DHT22;7826;49.784;9.934;2023-04-24T15:17:27;16.40;55.90
15450;DHT22;7826;49.784;9.934;2023-04-24T15:19:54;16.40;54.80
15450;DHT22;7826;49.784;9.934;2023-04-24T15:22:20;16.30;54.40
15450;DHT22;7826;49.784;9.934;2023-04-24T15:24:46;16.20;55.20
15450;DHT22;7826;49.784;9.934;2023-04-24T15:27:12;16.30;56.00
15450;DHT22;7826;49.784;9.934;2023-04-24T15:29:38;16.30;55.10
15450;DHT22;7826;49.784;9.934;2023-04-24T15:32:05;16.10;54.30
15450;DHT22;7826;49.784;9.934;2023-04-24T15:34:31;16.00;55.70
15450;DHT22;7826;49.784;9.934;2023-04-24T15:36:58;16.00;56.90
15450;DHT22;7826;49.784;9.934;2023-04-24T15:39:25;15.90;56.70
15450;DHT22;7826;49.784;9.934;2023-04-24T15:41:52;15.80;56.00
15450;DHT22;7826;49.784;9.934;2023-04-24T15:44:20;15.70;57.40
15450;DHT22;7826;49.784;9.934;2023-04-24T15:46:47;15.60;58.10
15450;DHT22;7826;49.784;9.934;2023-04-24T15:49:13;15.40;57.10
15450;DHT22;7826;49.784;9.934;2023-04-24T15:51:40;15.30;57.20
15450;DHT22;7826;49.784;9.934;2023-04-24T15:54:06;15.20;57.90
15450;DHT22;7826;49.784;9.934;2023-04-24T15:56:32;15.10;59.00
15450;DHT22;7826;49.784;9.934;2023-04-24T15:58:58;15.00;58.80
15450;DHT22;7826;49.784;9.934;2023-04-24T16:01:25;14.70;62.40
15450;DHT22;7826;49.784;9.934;2023-04-24T16:03:51;14.10;68.90